sensor_id;sensor_type;location;lat;lon;timestamp;temperature;humidity
62464;SHT31;48512;48.552;9.380;2022-09-14T00:01:33;21.67;69.62
62464;SHT31;48512;48.552;9.380;2022-09-14T00:04:02;21.67;69.76
62464;SHT31;48512;48.552;9.380;2022-09-14T00:06:29;21.71;69.67
62464;SHT31;48512;48.552;9.380;2022-09-14T00:08:56;21.77;69.49
62464;SHT31;48512;48.552;9.380;2022-09-14T00:11:24;21.78;69.16
62464;SHT31;48512;48.552;9.380;2022-09-14T00:13:50;21.74;69.18
62464;SHT31;48512;48.552;9.380;2022-09-14T00:16:22;21.71;69.45
62464;SHT31;48512;48.552;9.380;2022-09-14T00:18:57;21.70;69.46
62464;SHT31;48512;48.552;9.380;2022-09-14T00:21:25;21.68;69.48
62464;SHT31;48512;48.552;9.380;2022-09-14T00:23:50;21.68;69.72
62464;SHT31;48512;48.552;9.380;2022-09-14T00:26:18;21.70;69.37
62464;SHT31;48512;48.552;9.380;2022-09-14T00:28:47;21.74;69.02
62464;SHT31;48512;48.552;9.380;2022-09-14T00:31:14;21.79;68.88
62464;SHT31;48512;48.552;9.380;2022-09-14T00:33:43;21.82;68.69
62464;SHT31;48512;48.552;9.380;2022-09-14T00:36:17;21.75;69.23
62464;SHT31;48512;48.552;9.380;2022-09-14T00:38:45;21.73;69.68
62464;SHT31;48512;48.552;9.380;2022-09-14T00:41:13;21.74;69.42
62464;SHT31;48512;48.552;9.380;2022-09-14T00:46:19;21.81;69.47
62464;SHT31;48512;48.552;9.380;2022-09-14T00:48:45;21.77;69.61
62464;SHT31;48512;48.552;9.380;2022-09-14T00:51:10;21.68;69.84
62464;SHT31;48512;48.552;9.380;2022-09-14T00:53:36;21.65;69.72
62464;SHT31;48512;48.552;9.380;2022-09-14T00:56:02;21.67;69.59
62464;SHT31;48512;48.552;9.380;2022-09-14T00:58:27;21.74;69.44
62464;SHT31;48512;48.552;9.380;2022-09-14T01:00:52;21.65;69.40
62464;SHT31;48512;48.552;9.380;2022-09-14T01:03:19;21.68;69.43
62464;SHT31;48512;48.552;9.380;2022-09-14T01:11:42;21.68;69.13
62464;SHT31;48512;48.552;9.380;2022-09-14T01:22:42;21.85;68.97
62464;SHT31;48512;48.552;9.380;2022-09-14T01:27:59;21.77;71.31
62464;SHT31;48512;48.552;9.380;2022-09-14T01:30:27;21.62;73.32
62464;SHT31;48512;48.552;9.380;2022-09-14T01:33:13;21.41;75.85
62464;SHT31;48512;48.552;9.380;2022-09-14T01:35:57;21.23;77.55
62464;SHT31;48512;48.552;9.380;2022-09-14T01:38:53;21.20;80.02
62464;SHT31;48512;48.552;9.380;2022-09-14T01:41:22;21.22;78.38
62464;SHT31;48512;48.552;9.380;2022-09-14T01:43:53;20.91;80.03
62464;SHT31;48512;48.552;9.380;2022-09-14T01:46:44;20.79;82.18
62464;SHT31;48512;48.552;9.380;2022-09-14T01:51:46;20.58;83.03
62464;SHT31;48512;48.552;9.380;2022-09-14T01:57:26;20.38;84.58
62464;SHT31;48512;48.552;9.380;2022-09-14T01:59:57;20.52;84.15
62464;SHT31;48512;48.552;9.380;2022-09-14T02:02:52;20.49;84.07
62464;SHT31;48512;48.552;9.380;2022-09-14T02:05:36;20.47;83.96
62464;SHT31;48512;48.552;9.380;2022-09-14T02:08:03;20.30;83.95
62464;SHT31;48512;48.552;9.380;2022-09-14T02:10:29;20.14;84.07
62464;SHT31;48512;48.552;9.380;2022-09-14T02:12:55;20.06;84.40
62464;SHT31;48512;48.552;9.380;2022-09-14T02:15:21;20.06;84.45
62464;SHT31;48512;48.552;9.380;2022-09-14T02:17:47;19.89;85.07
62464;SHT31;48512;48.552;9.380;2022-09-14T02:20:20;19.83;85.96
62464;SHT31;48512;48.552;9.380;2022-09-14T02:22:47;20.01;84.76
62464;SHT31;48512;48.552;9.380;2022-09-14T02:25:12;19.68;85.15
62464;SHT31;48512;48.552;9.380;2022-09-14T02:27:38;19.65;85.57
62464;SHT31;48512;48.552;9.380;2022-09-14T02:30:04;19.48;86.52
62464;SHT31;48512;48.552;9.380;2022-09-14T02:38:20;19.47;87.42
62464;SHT31;48512;48.552;9.380;2022-09-14T02:53:07;19.25;87.78
62464;SHT31;48512;48.552;9.380;2022-09-14T02:55:37;19.27;88.42
62464;SHT31;48512;48.552;9.380;2022-09-14T02:58:09;19.24;88.14
62464;SHT31;48512;48.552;9.380;2022-09-14T03:00:41;19.15;88.44
62464;SHT31;48512;48.552;9.380;2022-09-14T03:03:08;19.25;88.57
62464;SHT31;48512;48.552;9.380;2022-09-14T03:05:34;19.11;88.75
62464;SHT31;48512;48.552;9.380;2022-09-14T03:08:00;19.02;89.28
62464;SHT31;48512;48.552;9.380;2022-09-14T03:10:26;19.28;88.54
62464;SHT31;48512;48.552;9.380;2022-09-14T03:12:52;19.20;88.47
62464;SHT31;48512;48.552;9.380;2022-09-14T03:15:18;19.20;88.41
62464;SHT31;48512;48.552;9.380;2022-09-14T03:17:47;19.25;88.63
62464;SHT31;48512;48.552;9.380;2022-09-14T03:20:14;19.34;89.14
62464;SHT31;48512;48.552;9.380;2022-09-14T03:22:39;19.30;89.26
62464;SHT31;48512;48.552;9.380;2022-09-14T03:25:05;19.31;89.48
62464;SHT31;48512;48.552;9.380;2022-09-14T03:27:30;19.34;89.15
62464;SHT31;48512;48.552;9.380;2022-09-14T03:29:56;19.41;89.03
62464;SHT31;48512;48.552;9.380;2022-09-14T03:32:21;19.51;88.81
62464;SHT31;48512;48.552;9.380;2022-09-14T03:34:47;19.27;89.70
62464;SHT31;48512;48.552;9.380;2022-09-14T03:37:12;19.24;90.06
62464;SHT31;48512;48.552;9.380;2022-09-14T03:39:37;19.30;89.61
62464;SHT31;48512;48.552;9.380;2022-09-14T03:42:03;19.24;89.74
62464;SHT31;48512;48.552;9.380;2022-09-14T03:44:28;19.20;89.61
62464;SHT31;48512;48.552;9.380;2022-09-14T03:46:54;19.21;90.29
62464;SHT31;48512;48.552;9.380;2022-09-14T03:49:19;19.17;90.05
62464;SHT31;48512;48.552;9.380;2022-09-14T03:51:44;19.10;90.33
62464;SHT31;48512;48.552;9.380;2022-09-14T03:54:10;19.21;89.79
62464;SHT31;48512;48.552;9.380;2022-09-14T03:56:35;19.04;90.56
62464;SHT31;48512;48.552;9.380;2022-09-14T03:59:01;18.93;91.15
62464;SHT31;48512;48.552;9.380;2022-09-14T04:01:26;19.03;90.63
62464;SHT31;48512;48.552;9.380;2022-09-14T04:03:51;18.93;90.68
62464;SHT31;48512;48.552;9.380;2022-09-14T04:06:17;18.93;90.86
62464;SHT31;48512;48.552;9.380;2022-09-14T04:08:44;18.80;91.13
62464;SHT31;48512;48.552;9.380;2022-09-14T04:11:14;18.76;91.57
62464;SHT31;48512;48.552;9.380;2022-09-14T04:13:41;18.70;92.08
62464;SHT31;48512;48.552;9.380;2022-09-14T04:16:06;18.70;91.91
62464;SHT31;48512;48.552;9.380;2022-09-14T04:18:32;18.66;91.98
62464;SHT31;48512;48.552;9.380;2022-09-14T04:21:00;18.65;91.67
62464;SHT31;48512;48.552;9.380;2022-09-14T04:23:26;18.76;91.31
62464;SHT31;48512;48.552;9.380;2022-09-14T04:25:52;18.70;91.79
62464;SHT31;48512;48.552;9.380;2022-09-14T04:28:18;18.80;90.86
62464;SHT31;48512;48.552;9.380;2022-09-14T04:30:53;18.77;91.89
62464;SHT31;48512;48.552;9.380;2022-09-14T04:33:19;18.80;91.42
62464;SHT31;48512;48.552;9.380;2022-09-14T04:35:44;18.80;91.61
62464;SHT31;48512;48.552;9.380;2022-09-14T04:38:09;18.69;91.89
62464;SHT31;48512;48.552;9.380;2022-09-14T04:40:39;18.73;92.00
62464;SHT31;48512;48.552;9.380;2022-09-14T04:43:05;18.72;92.07
62464;SHT31;48512;48.552;9.380;2022-09-14T04:45:30;18.59;92.21
62464;SHT31;48512;48.552;9.380;2022-09-14T04:47:56;18.59;92.43
62464;SHT31;48512;48.552;9.380;2022-09-14T04:50:21;18.76;92.38
62464;SHT31;48512;48.552;9.380;2022-09-14T04:52:47;18.80;92.27
62464;SHT31;48512;48.552;9.380;2022-09-14T04:55:12;18.82;92.53
62464;SHT31;48512;48.552;9.380;2022-09-14T04:57:37;18.83;92.98
62464;SHT31;48512;48.552;9.380;2022-09-14T05:00:03;18.85;92.87
62464;SHT31;48512;48.552;9.380;2022-09-14T05:02:29;18.93;92.74
62464;SHT31;48512;48.552;9.380;2022-09-14T05:04:56;19.17;91.74
62464;SHT31;48512;48.552;9.380;2022-09-14T05:07:23;19.14;91.83
62464;SHT31;48512;48.552;9.380;2022-09-14T05:09:48;19.25;91.56
62464;SHT31;48512;48.552;9.380;2022-09-14T05:12:14;19.17;92.31
62464;SHT31;48512;48.552;9.380;2022-09-14T05:14:39;19.21;90.65
62464;SHT31;48512;48.552;9.380;2022-09-14T05:17:04;19.27;90.38
62464;SHT31;48512;48.552;9.380;2022-09-14T05:19:30;19.32;91.09
62464;SHT31;48512;48.552;9.380;2022-09-14T05:21:55;19.27;91.58
62464;SHT31;48512;48.552;9.380;2022-09-14T05:24:20;19.34;91.31
62464;SHT31;48512;48.552;9.380;2022-09-14T05:26:46;19.51;89.89
62464;SHT31;48512;48.552;9.380;2022-09-14T05:29:14;19.51;90.31
62464;SHT31;48512;48.552;9.380;2022-09-14T05:31:40;19.61;88.63
62464;SHT31;48512;48.552;9.380;2022-09-14T05:34:05;19.52;89.96
62464;SHT31;48512;48.552;9.380;2022-09-14T05:36:31;19.61;91.03
62464;SHT31;48512;48.552;9.380;2022-09-14T05:38:56;19.62;90.39
62464;SHT31;48512;48.552;9.380;2022-09-14T05:41:22;19.58;89.28
62464;SHT31;48512;48.552;9.380;2022-09-14T05:43:47;19.61;89.81
62464;SHT31;48512;48.552;9.380;2022-09-14T05:46:15;19.65;89.63
62464;SHT31;48512;48.552;9.380;2022-09-14T05:48:41;19.92;88.49
62464;SHT31;48512;48.552;9.380;2022-09-14T05:51:12;19.85;87.55
62464;SHT31;48512;48.552;9.380;2022-09-14T05:53:38;19.83;88.66
62464;SHT31;48512;48.552;9.380;2022-09-14T05:56:09;19.79;89.49
62464;SHT31;48512;48.552;9.380;2022-09-14T05:58:36;20.14;88.75
62464;SHT31;48512;48.552;9.380;2022-09-14T06:01:26;19.92;88.41
62464;SHT31;48512;48.552;9.380;2022-09-14T06:03:53;19.93;88.73
62464;SHT31;48512;48.552;9.380;2022-09-14T06:06:20;19.93;87.80
62464;SHT31;48512;48.552;9.380;2022-09-14T06:08:47;20.01;88.12
62464;SHT31;48512;48.552;9.380;2022-09-14T06:11:18;20.01;88.71
62464;SHT31;48512;48.552;9.380;2022-09-14T06:13:43;20.20;87.35
62464;SHT31;48512;48.552;9.380;2022-09-14T06:16:15;20.24;86.47
62464;SHT31;48512;48.552;9.380;2022-09-14T06:18:41;20.45;86.13
62464;SHT31;48512;48.552;9.380;2022-09-14T06:21:08;20.34;88.33
62464;SHT31;48512;48.552;9.380;2022-09-14T06:23:34;20.23;88.48
62464;SHT31;48512;48.552;9.380;2022-09-14T06:26:01;20.23;87.25
62464;SHT31;48512;48.552;9.380;2022-09-14T06:28:28;20.44;85.68
62464;SHT31;48512;48.552;9.380;2022-09-14T06:30:54;20.52;85.19
62464;SHT31;48512;48.552;9.380;2022-09-14T06:33:19;20.58;86.38
62464;SHT31;48512;48.552;9.380;2022-09-14T06:36:03;20.57;86.13
62464;SHT31;48512;48.552;9.380;2022-09-14T06:38:29;20.64;84.98
62464;SHT31;48512;48.552;9.380;2022-09-14T06:43:25;20.57;85.93
62464;SHT31;48512;48.552;9.380;2022-09-14T06:48:33;20.78;83.74
62464;SHT31;48512;48.552;9.380;2022-09-14T06:50:58;20.74;84.29
62464;SHT31;48512;48.552;9.380;2022-09-14T06:53:24;20.69;85.19
62464;SHT31;48512;48.552;9.380;2022-09-14T06:55:50;21.16;82.45
62464;SHT31;48512;48.552;9.380;2022-09-14T06:58:16;21.00;82.43
62464;SHT31;48512;48.552;9.380;2022-09-14T07:00:41;20.99;83.51
62464;SHT31;48512;48.552;9.380;2022-09-14T07:03:07;21.06;83.07
62464;SHT31;48512;48.552;9.380;2022-09-14T07:05:33;21.13;82.58
62464;SHT31;48512;48.552;9.380;2022-09-14T07:07:58;21.09;83.89
62464;SHT31;48512;48.552;9.380;2022-09-14T07:10:24;20.89;84.91
62464;SHT31;48512;48.552;9.380;2022-09-14T07:12:53;21.13;83.41
62464;SHT31;48512;48.552;9.380;2022-09-14T07:15:19;21.00;84.97
62464;SHT31;48512;48.552;9.380;2022-09-14T07:17:45;21.06;83.54
62464;SHT31;48512;48.552;9.380;2022-09-14T07:20:11;20.93;84.46
62464;SHT31;48512;48.552;9.380;2022-09-14T07:22:36;21.03;84.59
62464;SHT31;48512;48.552;9.380;2022-09-14T07:25:02;21.16;83.45
62464;SHT31;48512;48.552;9.380;2022-09-14T07:27:27;21.29;82.43
62464;SHT31;48512;48.552;9.380;2022-09-14T07:29:53;21.46;81.48
62464;SHT31;48512;48.552;9.380;2022-09-14T07:32:18;21.41;82.40
62464;SHT31;48512;48.552;9.380;2022-09-14T07:34:44;21.36;82.55
62464;SHT31;48512;48.552;9.380;2022-09-14T07:37:09;21.37;82.68
62464;SHT31;48512;48.552;9.380;2022-09-14T07:39:35;21.61;81.34
62464;SHT31;48512;48.552;9.380;2022-09-14T07:42:00;21.60;81.82
62464;SHT31;48512;48.552;9.380;2022-09-14T07:44:26;21.58;81.86
62464;SHT31;48512;48.552;9.380;2022-09-14T07:46:51;21.46;83.56
62464;SHT31;48512;48.552;9.380;2022-09-14T07:49:17;21.73;82.18
62464;SHT31;48512;48.552;9.380;2022-09-14T07:51:42;21.64;82.62
62464;SHT31;48512;48.552;9.380;2022-09-14T07:54:11;21.64;82.76
62464;SHT31;48512;48.552;9.380;2022-09-14T07:56:37;21.64;82.14
62464;SHT31;48512;48.552;9.380;2022-09-14T07:59:03;21.79;81.15
62464;SHT31;48512;48.552;9.380;2022-09-14T08:01:30;21.99;80.25
62464;SHT31;48512;48.552;9.380;2022-09-14T08:03:59;21.95;81.43
62464;SHT31;48512;48.552;9.380;2022-09-14T08:06:25;22.16;79.75
62464;SHT31;48512;48.552;9.380;2022-09-14T08:08:52;22.13;79.75
62464;SHT31;48512;48.552;9.380;2022-09-14T08:13:51;22.32;79.26
62464;SHT31;48512;48.552;9.380;2022-09-14T08:16:17;22.54;78.38
62464;SHT31;48512;48.552;9.380;2022-09-14T08:18:43;22.49;79.27
62464;SHT31;48512;48.552;9.380;2022-09-14T08:21:12;22.56;78.64
62464;SHT31;48512;48.552;9.380;2022-09-14T08:23:39;22.77;78.82
62464;SHT31;48512;48.552;9.380;2022-09-14T08:26:09;22.68;78.35
62464;SHT31;48512;48.552;9.380;2022-09-14T08:28:35;22.59;78.28
62464;SHT31;48512;48.552;9.380;2022-09-14T08:31:06;22.81;77.72
62464;SHT31;48512;48.552;9.380;2022-09-14T08:33:33;22.81;77.65
62464;SHT31;48512;48.552;9.380;2022-09-14T08:35:59;22.98;76.78
62464;SHT31;48512;48.552;9.380;2022-09-14T08:38:25;23.12;75.11
62464;SHT31;48512;48.552;9.380;2022-09-14T08:40:50;23.25;75.21
62464;SHT31;48512;48.552;9.380;2022-09-14T08:43:17;23.43;74.63
62464;SHT31;48512;48.552;9.380;2022-09-14T08:45:44;23.41;75.35
62464;SHT31;48512;48.552;9.380;2022-09-14T08:48:30;23.41;75.85
62464;SHT31;48512;48.552;9.380;2022-09-14T08:50:57;23.50;74.25
62464;SHT31;48512;48.552;9.380;2022-09-14T08:53:23;23.42;74.89
62464;SHT31;48512;48.552;9.380;2022-09-14T09:01:27;23.76;73.75
62464;SHT31;48512;48.552;9.380;2022-09-14T09:09:30;24.32;72.73
62464;SHT31;48512;48.552;9.380;2022-09-14T09:11:57;24.36;72.12
62464;SHT31;48512;48.552;9.380;2022-09-14T09:14:35;24.55;71.74
62464;SHT31;48512;48.552;9.380;2022-09-14T09:17:09;24.72;71.34
62464;SHT31;48512;48.552;9.380;2022-09-14T09:19:56;24.77;71.51
62464;SHT31;48512;48.552;9.380;2022-09-14T09:22:24;25.02;70.29
62464;SHT31;48512;48.552;9.380;2022-09-14T09:24:53;25.17;70.07
62464;SHT31;48512;48.552;9.380;2022-09-14T09:27:19;25.27;69.12
62464;SHT31;48512;48.552;9.380;2022-09-14T09:29:44;25.37;68.26
62464;SHT31;48512;48.552;9.380;2022-09-14T09:32:23;25.69;68.08
62464;SHT31;48512;48.552;9.380;2022-09-14T09:34:49;25.35;68.90
62464;SHT31;48512;48.552;9.380;2022-09-14T09:37:22;25.48;69.27
62464;SHT31;48512;48.552;9.380;2022-09-14T09:39:48;25.58;68.45
62464;SHT31;48512;48.552;9.380;2022-09-14T09:42:23;25.95;67.86
62464;SHT31;48512;48.552;9.380;2022-09-14T09:47:47;26.06;66.77
62464;SHT31;48512;48.552;9.380;2022-09-14T09:52:48;26.34;65.34
62464;SHT31;48512;48.552;9.380;2022-09-14T09:55:18;26.45;66.08
62464;SHT31;48512;48.552;9.380;2022-09-14T09:57:44;26.44;65.82
62464;SHT31;48512;48.552;9.380;2022-09-14T10:00:36;26.74;66.87
62464;SHT31;48512;48.552;9.380;2022-09-14T10:03:25;27.22;65.63
62464;SHT31;48512;48.552;9.380;2022-09-14T10:05:59;26.87;65.70
62464;SHT31;48512;48.552;9.380;2022-09-14T10:08:26;27.08;64.07
62464;SHT31;48512;48.552;9.380;2022-09-14T10:10:52;27.42;63.81
62464;SHT31;48512;48.552;9.380;2022-09-14T10:13:33;27.50;65.11
62464;SHT31;48512;48.552;9.380;2022-09-14T10:16:16;27.33;65.58
62464;SHT31;48512;48.552;9.380;2022-09-14T10:18:50;27.43;64.75
62464;SHT31;48512;48.552;9.380;2022-09-14T10:21:17;27.78;63.45
62464;SHT31;48512;48.552;9.380;2022-09-14T10:23:43;27.36;61.37
62464;SHT31;48512;48.552;9.380;2022-09-14T10:28:50;27.05;64.02
62464;SHT31;48512;48.552;9.380;2022-09-14T10:31:21;27.22;64.57
62464;SHT31;48512;48.552;9.380;2022-09-14T10:33:51;27.42;62.04
62464;SHT31;48512;48.552;9.380;2022-09-14T10:36:38;27.39;62.95
62464;SHT31;48512;48.552;9.380;2022-09-14T10:39:26;27.32;62.73
62464;SHT31;48512;48.552;9.380;2022-09-14T10:50:10;26.92;63.33
62464;SHT31;48512;48.552;9.380;2022-09-14T11:01:17;27.29;63.57
62464;SHT31;48512;48.552;9.380;2022-09-14T11:07:01;27.57;62.46
62464;SHT31;48512;48.552;9.380;2022-09-14T11:09:52;27.50;62.67
62464;SHT31;48512;48.552;9.380;2022-09-14T11:18:07;27.67;63.16
62464;SHT31;48512;48.552;9.380;2022-09-14T11:20:37;27.87;62.82
62464;SHT31;48512;48.552;9.380;2022-09-14T11:26:11;28.09;62.34
62464;SHT31;48512;48.552;9.380;2022-09-14T11:28:48;28.23;60.92
62464;SHT31;48512;48.552;9.380;2022-09-14T11:33:52;27.73;62.41
62464;SHT31;48512;48.552;9.380;2022-09-14T11:36:22;27.58;63.46
62464;SHT31;48512;48.552;9.380;2022-09-14T11:38:54;27.43;63.56
62464;SHT31;48512;48.552;9.380;2022-09-14T11:41:23;27.57;61.10
62464;SHT31;48512;48.552;9.380;2022-09-14T11:44:00;27.64;61.19
62464;SHT31;48512;48.552;9.380;2022-09-14T11:46:37;27.64;62.34
62464;SHT31;48512;48.552;9.380;2022-09-14T11:49:16;27.65;61.75
62464;SHT31;48512;48.552;9.380;2022-09-14T11:51:48;27.33;60.02
62464;SHT31;48512;48.552;9.380;2022-09-14T11:54:19;27.25;61.10
62464;SHT31;48512;48.552;9.380;2022-09-14T11:56:50;27.05;60.75
62464;SHT31;48512;48.552;9.380;2022-09-14T12:00:22;27.17;61.26
62464;SHT31;48512;48.552;9.380;2022-09-14T12:10:22;26.47;54.73
62464;SHT31;48512;48.552;9.380;2022-09-14T12:12:56;26.33;56.92
62464;SHT31;48512;48.552;9.380;2022-09-14T12:41:00;25.79;63.59
62464;SHT31;48512;48.552;9.380;2022-09-14T12:46:04;25.76;63.42
62464;SHT31;48512;48.552;9.380;2022-09-14T12:54:18;24.99;65.70
62464;SHT31;48512;48.552;9.380;2022-09-14T12:57:39;24.94;65.36
62464;SHT31;48512;48.552;9.380;2022-09-14T13:00:00;25.17;65.67
62464;SHT31;48512;48.552;9.380;2022-09-14T13:05:03;24.66;67.53
62464;SHT31;48512;48.552;9.380;2022-09-14T13:07:33;24.47;68.09
62464;SHT31;48512;48.552;9.380;2022-09-14T13:10:02;24.24;67.88
62464;SHT31;48512;48.552;9.380;2022-09-14T13:12:33;24.01;69.83
62464;SHT31;48512;48.552;9.380;2022-09-14T13:15:06;24.03;70.47
62464;SHT31;48512;48.552;9.380;2022-09-14T13:17:57;23.73;71.04
62464;SHT31;48512;48.552;9.380;2022-09-14T13:20:23;23.71;72.01
62464;SHT31;48512;48.552;9.380;2022-09-14T13:22:48;23.60;72.36
62464;SHT31;48512;48.552;9.380;2022-09-14T13:25:35;23.73;72.53
62464;SHT31;48512;48.552;9.380;2022-09-14T13:28:06;23.67;72.31
62464;SHT31;48512;48.552;9.380;2022-09-14T13:30:35;23.60;72.96
62464;SHT31;48512;48.552;9.380;2022-09-14T13:33:03;23.60;72.81
62464;SHT31;48512;48.552;9.380;2022-09-14T13:35:37;23.92;71.60
62464;SHT31;48512;48.552;9.380;2022-09-14T13:38:14;23.83;71.28
62464;SHT31;48512;48.552;9.380;2022-09-14T13:40:41;23.81;71.94
62464;SHT31;48512;48.552;9.380;2022-09-14T13:43:07;23.57;72.18
62464;SHT31;48512;48.552;9.380;2022-09-14T13:45:33;23.60;71.73
62464;SHT31;48512;48.552;9.380;2022-09-14T13:47:59;23.63;71.02
62464;SHT31;48512;48.552;9.380;2022-09-14T13:50:25;23.10;72.35
62464;SHT31;48512;48.552;9.380;2022-09-14T13:52:51;23.14;72.32
62464;SHT31;48512;48.552;9.380;2022-09-14T13:58:12;23.11;72.50
62464;SHT31;48512;48.552;9.380;2022-09-14T14:00:58;23.07;72.82
62464;SHT31;48512;48.552;9.380;2022-09-14T14:03:37;22.83;72.54
62464;SHT31;48512;48.552;9.380;2022-09-14T14:06:29;22.97;72.36
62464;SHT31;48512;48.552;9.380;2022-09-14T14:09:09;22.86;72.53
62464;SHT31;48512;48.552;9.380;2022-09-14T14:11:38;22.73;72.94
62464;SHT31;48512;48.552;9.380;2022-09-14T14:16:39;22.52;73.35
62464;SHT31;48512;48.552;9.380;2022-09-14T14:19:05;22.61;72.71
62464;SHT31;48512;48.552;9.380;2022-09-14T14:21:49;22.65;71.87
62464;SHT31;48512;48.552;9.380;2022-09-14T14:24:23;22.40;73.24
62464;SHT31;48512;48.552;9.380;2022-09-14T14:26:52;22.37;74.37
62464;SHT31;48512;48.552;9.380;2022-09-14T14:29:17;22.36;73.04
62464;SHT31;48512;48.552;9.380;2022-09-14T14:31:43;22.46;73.25
62464;SHT31;48512;48.552;9.380;2022-09-14T14:34:21;22.29;74.00
62464;SHT31;48512;48.552;9.380;2022-09-14T14:36:47;22.23;72.69
62464;SHT31;48512;48.552;9.380;2022-09-14T14:39:15;22.10;73.56
62464;SHT31;48512;48.552;9.380;2022-09-14T14:41:42;22.19;73.13
62464;SHT31;48512;48.552;9.380;2022-09-14T14:44:18;21.98;73.50
62464;SHT31;48512;48.552;9.380;2022-09-14T14:46:44;21.73;73.85
62464;SHT31;48512;48.552;9.380;2022-09-14T14:49:11;21.79;74.41
62464;SHT31;48512;48.552;9.380;2022-09-14T14:51:37;21.88;72.44
62464;SHT31;48512;48.552;9.380;2022-09-14T14:54:03;21.68;73.33
62464;SHT31;48512;48.552;9.380;2022-09-14T14:56:28;21.71;73.51
62464;SHT31;48512;48.552;9.380;2022-09-14T14:58:54;21.88;72.50
62464;SHT31;48512;48.552;9.380;2022-09-14T15:01:19;21.55;73.01
62464;SHT31;48512;48.552;9.380;2022-09-14T15:03:46;21.64;74.24
62464;SHT31;48512;48.552;9.380;2022-09-14T15:06:18;21.34;73.95
62464;SHT31;48512;48.552;9.380;2022-09-14T15:08:44;21.07;74.75
62464;SHT31;48512;48.552;9.380;2022-09-14T15:11:14;21.03;75.53
62464;SHT31;48512;48.552;9.380;2022-09-14T15:13:41;21.18;75.81
62464;SHT31;48512;48.552;9.380;2022-09-14T15:16:06;20.92;75.99
62464;SHT31;48512;48.552;9.380;2022-09-14T15:18:31;21.10;75.62
62464;SHT31;48512;48.552;9.380;2022-09-14T15:20:57;21.24;75.94
62464;SHT31;48512;48.552;9.380;2022-09-14T15:23:23;20.78;76.04
62464;SHT31;48512;48.552;9.380;2022-09-14T15:25:51;20.98;76.75
62464;SHT31;48512;48.552;9.380;2022-09-14T15:28:17;20.86;76.12
62464;SHT31;48512;48.552;9.380;2022-09-14T15:30:42;21.22;76.08
62464;SHT31;48512;48.552;9.380;2022-09-14T15:33:08;21.51;75.87
62464;SHT31;48512;48.552;9.380;2022-09-14T15:35:33;21.27;71.76
62464;SHT31;48512;48.552;9.380;2022-09-14T15:37:58;21.37;74.88
62464;SHT31;48512;48.552;9.380;2022-09-14T15:40:24;20.98;73.61
62464;SHT31;48512;48.552;9.380;2022-09-14T15:42:49;21.16;74.58
62464;SHT31;48512;48.552;9.380;2022-09-14T15:45:15;21.05;72.59
62464;SHT31;48512;48.552;9.380;2022-09-14T15:47:41;20.96;74.68
62464;SHT31;48512;48.552;9.380;2022-09-14T15:50:07;21.00;73.14
62464;SHT31;48512;48.552;9.380;2022-09-14T15:52:37;21.02;72.73
62464;SHT31;48512;48.552;9.380;2022-09-14T15:55:04;20.98;72.98
62464;SHT31;48512;48.552;9.380;2022-09-14T15:57:30;21.29;72.20
62464;SHT31;48512;48.552;9.380;2022-09-14T15:59:55;21.73;71.86
62464;SHT31;48512;48.552;9.380;2022-09-14T16:02:21;21.62;71.39
62464;SHT31;48512;48.552;9.380;2022-09-14T16:04:46;21.41;71.83
62464;SHT31;48512;48.552;9.380;2022-09-14T16:07:12;21.62;72.90
62464;SHT31;48512;48.552;9.380;2022-09-14T16:09:38;21.44;71.23
62464;SHT31;48512;48.552;9.380;2022-09-14T16:12:06;21.29;71.28
62464;SHT31;48512;48.552;9.380;2022-09-14T16:14:32;21.24;72.55
62464;SHT31;48512;48.552;9.380;2022-09-14T16:16:57;21.54;70.79
62464;SHT31;48512;48.552;9.380;2022-09-14T16:19:23;21.71;70.55
62464;SHT31;48512;48.552;9.380;2022-09-14T16:21:49;22.01;69.31
62464;SHT31;48512;48.552;9.380;2022-09-14T16:24:16;22.13;69.42
62464;SHT31;48512;48.552;9.380;2022-09-14T16:26:42;22.26;68.27
62464;SHT31;48512;48.552;9.380;2022-09-14T16:29:09;22.33;68.40
62464;SHT31;48512;48.552;9.380;2022-09-14T16:31:40;22.46;67.06
62464;SHT31;48512;48.552;9.380;2022-09-14T16:34:18;22.77;66.73
62464;SHT31;48512;48.552;9.380;2022-09-14T16:36:45;22.64;66.69
62464;SHT31;48512;48.552;9.380;2022-09-14T16:39:13;22.59;66.84
62464;SHT31;48512;48.552;9.380;2022-09-14T16:41:39;22.39;67.24
62464;SHT31;48512;48.552;9.380;2022-09-14T16:44:09;22.29;67.66
62464;SHT31;48512;48.552;9.380;2022-09-14T16:46:36;22.47;66.73
62464;SHT31;48512;48.552;9.380;2022-09-14T16:49:03;22.47;66.99
62464;SHT31;48512;48.552;9.380;2022-09-14T16:51:30;22.50;67.77
62464;SHT31;48512;48.552;9.380;2022-09-14T16:53:57;22.23;67.53
62464;SHT31;48512;48.552;9.380;2022-09-14T16:56:26;22.25;67.84
62464;SHT31;48512;48.552;9.380;2022-09-14T16:58:53;22.04;68.25
62464;SHT31;48512;48.552;9.380;2022-09-14T17:01:21;22.06;68.13
62464;SHT31;48512;48.552;9.380;2022-09-14T17:03:49;22.12;68.97
62464;SHT31;48512;48.552;9.380;2022-09-14T17:06:17;21.82;68.18
62464;SHT31;48512;48.552;9.380;2022-09-14T17:08:44;21.88;68.80
62464;SHT31;48512;48.552;9.380;2022-09-14T17:11:10;21.97;69.18
62464;SHT31;48512;48.552;9.380;2022-09-14T17:13:36;21.81;67.83
62464;SHT31;48512;48.552;9.380;2022-09-14T17:16:07;21.88;68.37
62464;SHT31;48512;48.552;9.380;2022-09-14T17:18:33;21.65;68.93
62464;SHT31;48512;48.552;9.380;2022-09-14T17:21:07;21.60;68.38
62464;SHT31;48512;48.552;9.380;2022-09-14T17:23:33;21.39;69.18
62464;SHT31;48512;48.552;9.380;2022-09-14T17:25:59;21.71;67.36
62464;SHT31;48512;48.552;9.380;2022-09-14T17:28:26;21.47;67.92
62464;SHT31;48512;48.552;9.380;2022-09-14T17:30:54;21.33;68.98
62464;SHT31;48512;48.552;9.380;2022-09-14T17:33:20;21.30;68.78
62464;SHT31;48512;48.552;9.380;2022-09-14T17:35:47;21.22;69.27
62464;SHT31;48512;48.552;9.380;2022-09-14T17:38:13;21.16;69.99
62464;SHT31;48512;48.552;9.380;2022-09-14T17:40:39;21.12;70.02
62464;SHT31;48512;48.552;9.380;2022-09-14T17:43:04;20.93;70.12
62464;SHT31;48512;48.552;9.380;2022-09-14T17:45:30;20.92;69.96
62464;SHT31;48512;48.552;9.380;2022-09-14T17:47:55;21.13;69.69
62464;SHT31;48512;48.552;9.380;2022-09-14T17:50:20;21.06;69.27
62464;SHT31;48512;48.552;9.380;2022-09-14T17:52:48;20.93;70.04
62464;SHT31;48512;48.552;9.380;2022-09-14T17:55:14;20.84;70.18
62464;SHT31;48512;48.552;9.380;2022-09-14T17:57:40;20.69;70.23
62464;SHT31;48512;48.552;9.380;2022-09-14T18:00:06;20.96;69.72
62464;SHT31;48512;48.552;9.380;2022-09-14T18:02:32;20.89;69.88
62464;SHT31;48512;48.552;9.380;2022-09-14T18:04:57;20.91;70.13
62464;SHT31;48512;48.552;9.380;2022-09-14T18:07:24;20.81;70.24
62464;SHT31;48512;48.552;9.380;2022-09-14T18:09:50;20.85;70.35
62464;SHT31;48512;48.552;9.380;2022-09-14T18:12:15;20.64;71.33